Terminal Aerodrome Forecast
Issued by NWS

Home | Current Version | Previous Version | Text Only | Print | Product List | Glossary On
Versions: 1 2 3 4 5 6 7 8 9 10 11 12 13 14 15 16 17
843
FTUS43 KDVN 291720
TAFBRL
TAF
KBRL 291720Z 2918/3018 29012KT P6SM SCT080
     FM300000 28006KT P6SM FEW200
     FM301500 27008KT P6SM SCT100=

USA.gov is the U.S. government's official web portal to all federal, state and local government web resources and services.